createdAt,value
2023-05-24T00:00:30.615Z,15.91
2023-05-24T00:01:32.045Z,15.92
2023-05-24T00:02:33.570Z,15.87
2023-05-24T00:03:35.372Z,15.88
2023-05-24T00:04:36.996Z,15.88
2023-05-24T00:05:38.498Z,15.87
2023-05-24T00:06:39.939Z,15.85
2023-05-24T00:07:41.400Z,15.82
2023-05-24T00:08:42.855Z,15.78
2023-05-24T00:09:44.296Z,15.77
2023-05-24T00:10:45.788Z,15.76
2023-05-24T00:11:47.256Z,15.76
2023-05-24T00:12:48.778Z,15.75
2023-05-24T00:13:50.227Z,15.74
2023-05-24T00:14:51.709Z,15.69
2023-05-24T00:15:53.274Z,15.69
2023-05-24T00:16:54.957Z,15.64
2023-05-24T00:17:56.562Z,15.59
2023-05-24T00:18:58.039Z,15.57
2023-05-24T00:19:59.559Z,15.58
2023-05-24T00:21:01.099Z,15.55
2023-05-24T00:22:02.563Z,15.53
2023-05-24T00:23:04.028Z,15.53
2023-05-24T00:24:05.527Z,15.50
2023-05-24T00:25:07.314Z,15.49
2023-05-24T00:26:08.771Z,15.50
2023-05-24T00:27:10.197Z,15.50
2023-05-24T00:28:11.671Z,15.53
2023-05-24T00:29:13.116Z,15.54
2023-05-24T00:30:14.580Z,15.56
2023-05-24T00:31:16.082Z,15.53
2023-05-24T00:32:18.774Z,15.47
2023-05-24T00:33:20.244Z,15.44
2023-05-24T00:34:21.695Z,15.45
2023-05-24T00:35:23.207Z,15.42
2023-05-24T00:36:24.719Z,15.43
2023-05-24T00:37:26.197Z,15.42
2023-05-24T00:38:27.643Z,15.39
2023-05-24T00:39:29.140Z,15.40
2023-05-24T00:40:30.593Z,15.38
2023-05-24T00:41:32.048Z,15.37
2023-05-24T00:42:33.759Z,15.33
2023-05-24T00:43:35.302Z,15.36
2023-05-24T00:44:36.756Z,15.35
2023-05-24T00:45:38.250Z,15.37
2023-05-24T00:46:39.782Z,15.33
2023-05-24T00:47:41.375Z,15.33
2023-05-24T00:48:42.884Z,15.30
2023-05-24T00:49:44.350Z,15.33
2023-05-24T00:50:45.799Z,15.36
2023-05-24T00:51:47.492Z,15.38
2023-05-24T00:52:49.503Z,15.37
2023-05-24T00:53:51.013Z,15.37
2023-05-24T00:54:52.459Z,15.39
2023-05-24T00:55:53.932Z,15.37
2023-05-24T00:56:55.392Z,15.29
2023-05-24T00:57:59.685Z,15.27
2023-05-24T00:59:01.154Z,15.27
2023-05-24T01:00:03.354Z,15.26
2023-05-24T01:01:04.921Z,15.22
2023-05-24T01:02:06.448Z,15.20
2023-05-24T01:03:08.070Z,15.22
2023-05-24T01:04:09.645Z,15.25
2023-05-24T01:05:11.786Z,15.27
2023-05-24T01:06:13.467Z,15.24
2023-05-24T01:07:24.211Z,15.23
2023-05-24T01:08:45.912Z,15.21
2023-05-24T01:10:07.664Z,15.19
2023-05-24T01:11:12.200Z,15.23
2023-05-24T01:12:23.656Z,15.27
2023-05-24T01:13:30.592Z,15.15
2023-05-24T01:14:41.772Z,15.16
2023-05-24T01:15:46.798Z,15.24
2023-05-24T01:16:54.177Z,15.29
2023-05-24T01:18:01.765Z,15.33
2023-05-24T01:19:05.992Z,15.31
2023-05-24T01:20:07.758Z,15.24
2023-05-24T01:21:13.808Z,15.25
2023-05-24T01:22:24.669Z,15.29
2023-05-24T01:23:49.446Z,15.32
2023-05-24T01:24:50.887Z,15.28
2023-05-24T01:25:52.326Z,15.28
2023-05-24T01:26:53.746Z,15.31
2023-05-24T01:27:55.191Z,15.18
2023-05-24T01:28:58.543Z,15.12
2023-05-24T01:30:00.228Z,15.11
2023-05-24T01:31:01.934Z,15.13
2023-05-24T01:32:03.576Z,15.06
2023-05-24T01:33:05.114Z,14.92
2023-05-24T01:34:07.576Z,14.90
2023-05-24T01:35:09.221Z,14.92
2023-05-24T01:36:10.700Z,14.93
2023-05-24T01:37:14.423Z,14.96
2023-05-24T01:38:15.969Z,14.98
2023-05-24T01:39:17.504Z,14.81
2023-05-24T01:40:20.884Z,15.08
2023-05-24T01:41:28.325Z,15.08
2023-05-24T01:42:44.591Z,15.06
2023-05-24T01:44:00.501Z,15.03
2023-05-24T01:45:14.071Z,14.92
2023-05-24T01:46:15.558Z,14.94
2023-05-24T01:47:35.838Z,14.91
2023-05-24T01:48:37.292Z,14.92
2023-05-24T01:49:40.489Z,14.91
2023-05-24T01:50:44.931Z,14.92
2023-05-24T01:51:51.390Z,14.87
2023-05-24T01:52:52.914Z,14.83
2023-05-24T01:53:54.383Z,14.79
2023-05-24T01:54:56.528Z,14.72
2023-05-24T01:55:58.001Z,14.65
2023-05-24T01:57:00.092Z,14.66
2023-05-24T01:58:02.350Z,14.57
2023-05-24T01:59:04.115Z,14.55
2023-05-24T02:00:05.873Z,14.58
2023-05-24T02:01:14.401Z,14.57
2023-05-24T02:02:16.151Z,14.54
2023-05-24T02:03:17.767Z,14.44
2023-05-24T02:04:19.376Z,14.46
2023-05-24T02:05:21.222Z,14.39
2023-05-24T02:06:22.670Z,14.35
2023-05-24T02:07:24.154Z,14.32
2023-05-24T02:08:25.614Z,14.33
2023-05-24T02:09:27.086Z,14.32
2023-05-24T02:10:28.534Z,14.32
2023-05-24T02:11:29.953Z,14.36
2023-05-24T02:12:31.429Z,14.40
2023-05-24T02:13:32.938Z,14.39
2023-05-24T02:14:34.407Z,14.42
2023-05-24T02:15:35.932Z,14.40
2023-05-24T02:16:37.755Z,14.38
2023-05-24T02:17:39.265Z,14.37
2023-05-24T02:18:41.057Z,14.40
2023-05-24T02:19:42.537Z,14.37
2023-05-24T02:20:44.307Z,14.38
2023-05-24T02:21:46.019Z,14.37
2023-05-24T02:22:47.499Z,14.35
2023-05-24T02:23:49.019Z,14.35
2023-05-24T02:24:50.490Z,14.34
2023-05-24T02:25:51.965Z,14.31
2023-05-24T02:26:53.427Z,14.29
2023-05-24T02:27:55.290Z,14.24
2023-05-24T02:28:56.838Z,14.30
2023-05-24T02:29:58.276Z,14.25
2023-05-24T02:30:59.803Z,14.25
2023-05-24T02:32:01.265Z,14.28
2023-05-24T02:33:02.746Z,14.24
2023-05-24T02:34:04.240Z,14.22
2023-05-24T02:35:05.794Z,14.24
2023-05-24T02:36:07.282Z,14.18
2023-05-24T02:37:08.859Z,14.18
2023-05-24T02:38:10.330Z,14.11
2023-05-24T02:39:11.789Z,14.07
2023-05-24T02:40:13.337Z,14.09
2023-05-24T02:41:14.865Z,14.01
2023-05-24T02:42:16.321Z,13.97
2023-05-24T02:43:17.811Z,13.96
2023-05-24T02:44:19.316Z,13.93
2023-05-24T02:45:20.783Z,13.97
2023-05-24T02:46:22.267Z,14.00
2023-05-24T02:47:23.820Z,13.97
2023-05-24T02:48:25.313Z,13.93
2023-05-24T02:49:26.765Z,13.91
2023-05-24T02:50:28.232Z,13.90
2023-05-24T02:51:29.683Z,13.93
2023-05-24T02:52:31.107Z,13.92
2023-05-24T02:53:32.697Z,13.96
2023-05-24T02:54:34.208Z,13.92
2023-05-24T02:55:35.736Z,13.96
2023-05-24T02:56:37.266Z,13.98
2023-05-24T02:57:38.727Z,13.99
2023-05-24T02:58:40.274Z,14.06
2023-05-24T02:59:41.811Z,14.01
2023-05-24T03:00:45.562Z,13.94
2023-05-24T03:01:47.151Z,13.94
2023-05-24T03:02:48.726Z,13.97
2023-05-24T03:03:50.384Z,13.98
2023-05-24T03:04:52.002Z,13.97
2023-05-24T03:05:53.608Z,13.82
2023-05-24T03:06:55.047Z,13.80
2023-05-24T03:07:56.531Z,13.78
2023-05-24T03:08:57.996Z,13.69
2023-05-24T03:10:00.029Z,13.72
2023-05-24T03:11:01.512Z,13.73
2023-05-24T03:12:02.980Z,13.77
2023-05-24T03:13:07.847Z,13.77
2023-05-24T03:14:11.386Z,13.76
2023-05-24T03:15:15.575Z,13.80
2023-05-24T03:16:17.148Z,13.86
2023-05-24T03:17:21.553Z,13.93
2023-05-24T03:18:23.885Z,14.01
2023-05-24T03:19:26.348Z,14.05
2023-05-24T03:20:27.856Z,14.10
2023-05-24T03:21:29.432Z,14.16
2023-05-24T03:22:31.466Z,14.03
2023-05-24T03:23:32.984Z,14.03
2023-05-24T03:24:35.540Z,13.96
2023-05-24T03:25:37.190Z,13.99
2023-05-24T03:26:39.910Z,13.98
2023-05-24T03:27:41.687Z,13.93
2023-05-24T03:28:43.363Z,13.74
2023-05-24T03:29:45.026Z,13.78
2023-05-24T03:30:47.026Z,13.78
2023-05-24T03:31:49.173Z,13.80
2023-05-24T03:32:50.725Z,13.90
2023-05-24T03:33:52.336Z,13.84
2023-05-24T03:34:53.891Z,13.76
2023-05-24T03:35:55.391Z,13.71
2023-05-24T03:36:58.403Z,13.64
2023-05-24T03:38:00.259Z,13.58
2023-05-24T03:39:03.346Z,13.59
2023-05-24T03:40:06.317Z,13.61
2023-05-24T03:41:29.465Z,13.66
2023-05-24T03:42:34.024Z,13.76
2023-05-24T03:43:35.504Z,13.82
2023-05-24T03:44:40.686Z,13.89
2023-05-24T03:45:42.418Z,13.88
2023-05-24T03:46:43.939Z,13.97
2023-05-24T03:47:45.954Z,14.06
2023-05-24T03:48:48.263Z,13.89
2023-05-24T03:49:49.727Z,13.91
2023-05-24T03:50:51.246Z,13.94
2023-05-24T03:51:52.708Z,13.96
2023-05-24T03:52:54.536Z,14.00
2023-05-24T03:53:56.468Z,14.02
2023-05-24T03:54:57.923Z,13.93
2023-05-24T03:55:59.355Z,13.88
2023-05-24T03:57:00.852Z,13.97
2023-05-24T03:58:02.336Z,14.01
2023-05-24T03:59:03.828Z,14.04
2023-05-24T04:00:05.564Z,13.98
2023-05-24T04:01:29.218Z,14.02
2023-05-24T04:02:35.009Z,14.06
2023-05-24T04:03:36.707Z,14.07
2023-05-24T04:04:38.944Z,14.09
2023-05-24T04:05:40.394Z,14.12
2023-05-24T04:06:42.008Z,14.13
2023-05-24T04:07:43.492Z,14.13
2023-05-24T04:08:46.474Z,14.13
2023-05-24T04:09:48.007Z,14.12
2023-05-24T04:10:49.464Z,14.10
2023-05-24T04:11:51.229Z,14.03
2023-05-24T04:12:52.671Z,13.96
2023-05-24T04:13:54.585Z,13.97
2023-05-24T04:14:56.102Z,13.97
2023-05-24T04:15:57.566Z,13.98
2023-05-24T04:16:59.158Z,13.97
2023-05-24T04:18:00.760Z,13.94
2023-05-24T04:19:02.353Z,13.96
2023-05-24T04:20:03.991Z,13.94
2023-05-24T04:21:05.559Z,13.95
2023-05-24T04:22:07.262Z,13.89
2023-05-24T04:23:11.390Z,13.91
2023-05-24T04:24:13.396Z,13.94
2023-05-24T04:25:14.893Z,13.97
2023-05-24T04:26:16.381Z,14.04
2023-05-24T04:27:17.840Z,14.05
2023-05-24T04:28:20.213Z,14.09
2023-05-24T04:29:21.690Z,14.18
2023-05-24T04:30:23.204Z,14.15
2023-05-24T04:31:25.163Z,14.02
2023-05-24T04:32:26.704Z,13.96
2023-05-24T04:33:28.219Z,13.96
2023-05-24T04:34:29.742Z,14.01
2023-05-24T04:35:31.278Z,14.03
2023-05-24T04:36:33.289Z,14.06
2023-05-24T04:37:34.759Z,14.09
2023-05-24T04:38:36.307Z,14.05
2023-05-24T04:39:37.822Z,14.06
2023-05-24T04:40:39.288Z,14.05
2023-05-24T04:41:40.759Z,14.10
2023-05-24T04:42:42.292Z,14.05
2023-05-24T04:43:43.756Z,14.08
2023-05-24T04:44:45.211Z,14.03
2023-05-24T04:45:46.666Z,14.04
2023-05-24T04:46:48.178Z,14.08
2023-05-24T04:47:49.668Z,14.10
2023-05-24T04:48:51.138Z,14.09
2023-05-24T04:49:52.581Z,14.08
2023-05-24T04:50:54.616Z,14.05
2023-05-24T04:51:56.458Z,14.00
2023-05-24T04:52:57.964Z,14.03
2023-05-24T04:53:59.457Z,14.10
2023-05-24T04:55:00.904Z,14.16
2023-05-24T04:56:02.339Z,14.29
2023-05-24T04:57:03.878Z,14.38
2023-05-24T04:58:05.312Z,14.42
2023-05-24T04:59:07.345Z,14.45
2023-05-24T05:00:08.962Z,14.33
2023-05-24T05:01:10.435Z,14.40
2023-05-24T05:02:12.041Z,14.47
2023-05-24T05:03:13.723Z,14.46
2023-05-24T05:04:15.380Z,14.51
2023-05-24T05:05:16.877Z,14.58
2023-05-24T05:06:18.310Z,14.52
2023-05-24T05:07:19.785Z,14.36
2023-05-24T05:08:21.229Z,14.36
2023-05-24T05:09:22.684Z,14.45
2023-05-24T05:10:24.174Z,14.53
2023-05-24T05:11:25.616Z,14.52
2023-05-24T05:12:27.056Z,14.50
2023-05-24T05:13:28.591Z,14.44
2023-05-24T05:14:30.056Z,14.32
2023-05-24T05:15:31.537Z,14.23
2023-05-24T05:16:33.022Z,14.19
2023-05-24T05:17:34.521Z,14.11
2023-05-24T05:18:36.037Z,14.06
2023-05-24T05:19:37.491Z,14.06
2023-05-24T05:20:39.021Z,14.15
2023-05-24T05:21:40.472Z,14.18
2023-05-24T05:22:48.174Z,14.21
2023-05-24T05:23:49.639Z,14.26
2023-05-24T05:24:51.600Z,14.14
2023-05-24T05:25:53.118Z,14.12
2023-05-24T05:26:54.564Z,14.06
2023-05-24T05:27:56.010Z,14.10
2023-05-24T05:28:57.613Z,14.10
2023-05-24T05:29:59.085Z,14.10
2023-05-24T05:31:00.580Z,14.19
2023-05-24T05:32:02.093Z,14.23
2023-05-24T05:33:06.641Z,14.21
2023-05-24T05:34:08.154Z,14.27
2023-05-24T05:35:09.741Z,14.25
2023-05-24T05:36:11.200Z,14.16
2023-05-24T05:37:12.744Z,14.16
2023-05-24T05:38:14.199Z,14.14
2023-05-24T05:39:15.687Z,14.11
2023-05-24T05:40:17.242Z,14.21
2023-05-24T05:41:18.714Z,14.26
2023-05-24T05:42:20.198Z,14.32
2023-05-24T05:43:21.659Z,14.38
2023-05-24T05:44:23.097Z,14.35
2023-05-24T05:45:24.645Z,14.30
2023-05-24T05:46:26.131Z,14.28
2023-05-24T05:47:27.648Z,14.31
2023-05-24T05:48:29.151Z,14.29
2023-05-24T05:49:30.624Z,14.38
2023-05-24T05:50:32.066Z,14.38
2023-05-24T05:51:33.538Z,14.43
2023-05-24T05:52:35.069Z,14.33
2023-05-24T05:53:36.560Z,14.40
2023-05-24T05:54:38.090Z,14.48
2023-05-24T05:55:39.560Z,14.55
2023-05-24T05:56:41.271Z,14.54
2023-05-24T05:57:42.754Z,14.47
2023-05-24T05:58:44.179Z,14.50
2023-05-24T05:59:45.642Z,14.54
2023-05-24T06:00:47.109Z,14.61
2023-05-24T06:01:48.575Z,14.54
2023-05-24T06:02:50.161Z,14.57
2023-05-24T06:03:51.796Z,14.41
2023-05-24T06:04:53.397Z,14.29
2023-05-24T06:05:54.972Z,14.23
2023-05-24T06:06:56.504Z,14.17
2023-05-24T06:07:57.976Z,14.12
2023-05-24T06:08:59.743Z,14.07
2023-05-24T06:10:01.410Z,14.15
2023-05-24T06:11:02.953Z,14.20
2023-05-24T06:12:04.600Z,14.31
2023-05-24T06:13:06.045Z,14.31
2023-05-24T06:14:07.522Z,14.29
2023-05-24T06:15:09.213Z,14.20
2023-05-24T06:16:10.701Z,14.25
2023-05-24T06:17:12.220Z,14.27
2023-05-24T06:18:13.775Z,14.28
2023-05-24T06:19:15.259Z,14.28
2023-05-24T06:20:16.767Z,14.27
2023-05-24T06:21:18.225Z,14.13
2023-05-24T06:22:19.972Z,14.09
2023-05-24T06:23:21.440Z,13.95
2023-05-24T06:24:22.895Z,13.98
2023-05-24T06:25:24.446Z,14.01
2023-05-24T06:26:25.935Z,14.12
2023-05-24T06:27:27.376Z,14.17
2023-05-24T06:28:28.882Z,14.25
2023-05-24T06:29:30.349Z,14.29
2023-05-24T06:30:31.984Z,14.22
2023-05-24T06:31:33.819Z,14.14
2023-05-24T06:32:35.321Z,14.18
2023-05-24T06:33:38.270Z,14.28
2023-05-24T06:34:39.865Z,14.31
2023-05-24T06:35:41.335Z,14.35
2023-05-24T06:36:43.128Z,14.44
2023-05-24T06:37:44.684Z,14.42
2023-05-24T06:38:46.155Z,14.46
2023-05-24T06:39:47.631Z,14.61
2023-05-24T06:40:49.090Z,14.71
2023-05-24T06:41:50.574Z,14.72
2023-05-24T06:42:58.546Z,14.63
2023-05-24T06:43:59.982Z,14.60
2023-05-24T06:45:01.467Z,14.67
2023-05-24T06:46:02.940Z,14.67
2023-05-24T06:47:04.591Z,14.69
2023-05-24T06:48:06.245Z,14.71
2023-05-24T06:49:07.782Z,14.65
2023-05-24T06:50:09.380Z,14.57
2023-05-24T06:51:10.829Z,14.62
2023-05-24T06:52:12.288Z,14.60
2023-05-24T06:53:14.729Z,14.53
2023-05-24T06:54:16.184Z,14.50
2023-05-24T06:55:17.650Z,14.48
2023-05-24T06:56:19.134Z,14.28
2023-05-24T06:57:21.108Z,14.30
2023-05-24T06:58:22.545Z,14.29
2023-05-24T06:59:24.066Z,14.39
2023-05-24T07:00:25.587Z,14.41
2023-05-24T07:01:27.087Z,14.46
2023-05-24T07:02:28.583Z,14.59
2023-05-24T07:03:30.437Z,14.66
2023-05-24T07:04:31.944Z,14.75
2023-05-24T07:05:33.459Z,14.78
2023-05-24T07:06:35.158Z,14.90
2023-05-24T07:07:36.604Z,14.82
2023-05-24T07:08:38.045Z,14.68
2023-05-24T07:09:40.411Z,14.70
2023-05-24T07:10:42.109Z,14.52
2023-05-24T07:11:43.738Z,14.57
2023-05-24T07:12:45.204Z,14.70
2023-05-24T07:13:46.624Z,14.85
2023-05-24T07:14:48.122Z,14.91
2023-05-24T07:15:49.571Z,14.91
2023-05-24T07:16:51.015Z,14.93
2023-05-24T07:17:52.735Z,14.93
2023-05-24T07:18:55.205Z,14.92
2023-05-24T07:19:56.682Z,14.94
2023-05-24T07:20:58.165Z,14.92
2023-05-24T07:21:59.648Z,15.04
2023-05-24T07:23:01.360Z,15.07
2023-05-24T07:24:02.829Z,15.14
2023-05-24T07:25:04.564Z,15.18
2023-05-24T07:26:06.097Z,15.14
2023-05-24T07:27:07.536Z,15.13
2023-05-24T07:28:09.016Z,15.09
2023-05-24T07:29:10.502Z,15.05
2023-05-24T07:30:23.513Z,15.15
2023-05-24T07:31:35.572Z,15.26
2023-05-24T07:32:37.079Z,15.27
2023-05-24T07:33:38.780Z,15.31
2023-05-24T07:34:40.337Z,15.26
2023-05-24T07:35:41.991Z,15.17
2023-05-24T07:36:43.503Z,15.20
2023-05-24T07:37:44.953Z,15.13
2023-05-24T07:38:46.449Z,15.17
2023-05-24T07:39:47.936Z,15.25
2023-05-24T07:40:49.415Z,15.33
2023-05-24T07:41:50.962Z,15.36
2023-05-24T07:42:52.416Z,15.45
2023-05-24T07:43:56.947Z,15.60
2023-05-24T07:44:58.574Z,15.72
2023-05-24T07:46:00.082Z,15.74
2023-05-24T07:47:01.643Z,15.62
2023-05-24T07:48:03.161Z,15.54
2023-05-24T07:49:04.633Z,15.47
2023-05-24T07:50:06.520Z,15.58
2023-05-24T07:51:07.971Z,15.57
2023-05-24T07:52:09.410Z,15.60
2023-05-24T07:53:10.890Z,15.43
2023-05-24T07:54:12.350Z,15.52
2023-05-24T07:55:13.820Z,15.57
2023-05-24T07:56:15.271Z,15.60
2023-05-24T07:57:16.815Z,15.52
2023-05-24T07:58:18.320Z,15.51
2023-05-24T07:59:19.791Z,15.48
2023-05-24T08:00:21.307Z,15.53
2023-05-24T08:01:22.751Z,15.59
2023-05-24T08:02:24.274Z,15.59
2023-05-24T08:03:25.937Z,15.54
2023-05-24T08:04:27.588Z,15.59
2023-05-24T08:05:29.076Z,15.63
2023-05-24T08:06:30.713Z,15.65
2023-05-24T08:07:32.182Z,15.70
2023-05-24T08:08:33.814Z,15.68
2023-05-24T08:09:35.292Z,15.65
2023-05-24T08:10:36.766Z,15.65
2023-05-24T08:11:38.236Z,15.67
2023-05-24T08:12:40.011Z,15.69
2023-05-24T08:13:41.477Z,15.68
2023-05-24T08:14:42.944Z,15.71
2023-05-24T08:15:44.552Z,15.72
2023-05-24T08:16:46.309Z,15.79
2023-05-24T08:17:48.501Z,15.79
2023-05-24T08:18:51.884Z,15.81
2023-05-24T08:19:54.790Z,15.92
2023-05-24T08:20:56.280Z,16.01
2023-05-24T08:21:57.738Z,16.06
2023-05-24T08:22:59.200Z,16.09
2023-05-24T08:24:00.706Z,16.08
2023-05-24T08:25:02.194Z,15.98
2023-05-24T08:26:03.764Z,15.93
2023-05-24T08:27:05.331Z,15.93
2023-05-24T08:28:06.864Z,15.93
2023-05-24T08:29:08.428Z,15.90
2023-05-24T08:30:10.022Z,15.89
2023-05-24T08:31:11.493Z,15.88
2023-05-24T08:32:13.403Z,15.83
2023-05-24T08:33:15.047Z,15.79
2023-05-24T08:34:16.559Z,15.79
2023-05-24T08:35:21.551Z,15.77
2023-05-24T08:36:23.251Z,15.78
2023-05-24T08:37:24.753Z,15.88
2023-05-24T08:38:26.237Z,16.02
2023-05-24T08:39:27.698Z,16.04
2023-05-24T08:40:29.141Z,16.13
2023-05-24T08:41:30.595Z,16.17
2023-05-24T08:42:32.127Z,16.25
2023-05-24T08:43:33.606Z,16.22
2023-05-24T08:44:37.717Z,16.19
2023-05-24T08:45:39.268Z,16.27
2023-05-24T08:46:40.977Z,16.27
2023-05-24T08:47:47.146Z,16.34
2023-05-24T08:48:48.730Z,16.34
2023-05-24T08:49:50.601Z,16.33
2023-05-24T08:50:52.582Z,16.03
2023-05-24T08:51:54.148Z,16.39
2023-05-24T08:52:55.653Z,16.39
2023-05-24T08:53:59.829Z,16.40
2023-05-24T08:55:01.859Z,16.38
2023-05-24T08:56:03.581Z,16.40
2023-05-24T08:57:05.123Z,16.37
2023-05-24T08:58:06.563Z,16.38
2023-05-24T08:59:08.522Z,16.35
2023-05-24T09:00:10.446Z,16.26
2023-05-24T09:01:12.002Z,16.14
2023-05-24T09:02:14.108Z,16.25
2023-05-24T09:03:15.750Z,16.31
2023-05-24T09:04:17.329Z,16.29
2023-05-24T09:05:18.815Z,16.29
2023-05-24T09:06:20.312Z,16.31
2023-05-24T09:07:22.224Z,16.26
2023-05-24T09:08:23.720Z,16.17
2023-05-24T09:09:25.645Z,16.09
2023-05-24T09:10:28.363Z,16.16
2023-05-24T09:11:31.799Z,16.34
2023-05-24T09:12:37.889Z,16.50
2023-05-24T09:13:40.346Z,16.61
2023-05-24T09:14:47.528Z,16.57
2023-05-24T09:15:48.996Z,16.57
2023-05-24T09:16:50.488Z,16.59
2023-05-24T09:17:52.036Z,16.48
2023-05-24T09:18:53.550Z,16.46
2023-05-24T09:19:55.094Z,16.35
2023-05-24T09:20:56.725Z,16.24
2023-05-24T09:21:58.268Z,16.26
2023-05-24T09:22:59.708Z,16.30
2023-05-24T09:24:01.163Z,16.33
2023-05-24T09:25:02.662Z,16.34
2023-05-24T09:26:07.508Z,16.38
2023-05-24T09:27:09.020Z,16.38
2023-05-24T09:28:10.640Z,16.44
2023-05-24T09:29:12.095Z,16.44
2023-05-24T09:30:15.030Z,16.18
2023-05-24T09:31:16.488Z,16.52
2023-05-24T09:32:18.204Z,16.55
2023-05-24T09:33:19.700Z,16.62
2023-05-24T09:34:21.173Z,16.53
2023-05-24T09:35:22.617Z,16.69
2023-05-24T09:36:24.129Z,16.75
2023-05-24T09:37:29.010Z,16.70
2023-05-24T09:38:33.544Z,16.63
2023-05-24T09:39:35.035Z,16.66
2023-05-24T09:40:36.515Z,16.66
2023-05-24T09:41:38.137Z,16.64
2023-05-24T09:42:39.612Z,16.64
2023-05-24T09:43:47.999Z,16.57
2023-05-24T09:45:18.756Z,16.42
2023-05-24T09:46:20.490Z,16.30
2023-05-24T09:47:22.071Z,16.34
2023-05-24T09:48:23.609Z,16.36
2023-05-24T09:49:25.075Z,16.44
2023-05-24T09:50:26.569Z,16.46
2023-05-24T09:51:28.225Z,16.47
2023-05-24T09:52:29.830Z,16.53
2023-05-24T09:53:34.542Z,16.67
2023-05-24T09:54:36.022Z,16.70
2023-05-24T09:55:37.490Z,16.68
2023-05-24T09:56:39.748Z,16.74
2023-05-24T09:57:41.238Z,16.71
2023-05-24T09:58:42.702Z,16.75
2023-05-24T09:59:44.170Z,16.78
2023-05-24T10:00:45.991Z,16.85
2023-05-24T10:01:48.027Z,16.87
2023-05-24T10:03:02.087Z,16.96
2023-05-24T10:04:06.158Z,17.07
2023-05-24T10:05:12.816Z,17.11
2023-05-24T10:06:14.288Z,17.08
2023-05-24T10:07:15.792Z,16.93
2023-05-24T10:08:17.290Z,16.86
2023-05-24T10:09:18.855Z,16.88
2023-05-24T10:10:20.370Z,16.89
2023-05-24T10:11:21.915Z,16.82
2023-05-24T10:12:23.465Z,16.77
2023-05-24T10:13:24.991Z,16.72
2023-05-24T10:14:26.534Z,16.71
2023-05-24T10:15:28.238Z,16.78
2023-05-24T10:16:29.849Z,16.89
2023-05-24T10:17:31.390Z,16.96
2023-05-24T10:18:32.920Z,17.03
2023-05-24T10:19:34.843Z,17.11
2023-05-24T10:20:36.391Z,17.19
2023-05-24T10:21:38.022Z,17.19
2023-05-24T10:22:43.753Z,17.15
2023-05-24T10:23:45.248Z,17.11
2023-05-24T10:24:47.167Z,17.07
2023-05-24T10:25:55.220Z,17.03
2023-05-24T10:26:56.740Z,17.02
2023-05-24T10:27:58.704Z,17.05
2023-05-24T10:29:04.604Z,17.12
2023-05-24T10:30:15.243Z,17.03
2023-05-24T10:31:36.162Z,16.96
2023-05-24T10:32:37.911Z,17.09
2023-05-24T10:33:39.493Z,17.23
2023-05-24T10:34:40.988Z,17.10
2023-05-24T10:35:46.075Z,17.12
2023-05-24T10:36:47.613Z,17.24
2023-05-24T10:37:49.321Z,17.34
2023-05-24T10:38:50.910Z,17.39
2023-05-24T10:39:52.673Z,17.36
2023-05-24T10:40:54.217Z,17.24
2023-05-24T10:41:58.601Z,17.23
2023-05-24T10:43:02.654Z,17.31
2023-05-24T10:45:27.249Z,17.62
2023-05-24T10:46:28.836Z,17.59
2023-05-24T10:47:30.770Z,17.54
2023-05-24T10:48:32.563Z,17.42
2023-05-24T10:49:34.092Z,17.34
2023-05-24T10:50:35.598Z,17.24
2023-05-24T10:51:37.378Z,17.28
2023-05-24T10:52:38.864Z,17.29
2023-05-24T10:53:40.354Z,17.23
2023-05-24T10:54:49.735Z,17.14
2023-05-24T10:56:05.532Z,17.26
2023-05-24T10:57:07.165Z,17.33
2023-05-24T10:58:08.642Z,17.40
2023-05-24T10:59:10.146Z,17.47
2023-05-24T11:00:34.026Z,17.42
2023-05-24T11:01:36.575Z,17.41
2023-05-24T11:02:38.194Z,17.37
2023-05-24T11:03:40.955Z,17.36
2023-05-24T11:04:46.952Z,17.37
2023-05-24T11:05:50.009Z,17.48
2023-05-24T11:07:04.358Z,17.47
2023-05-24T11:08:06.959Z,17.49
2023-05-24T11:09:09.314Z,17.50
2023-05-24T11:10:16.546Z,17.57
2023-05-24T11:12:22.410Z,17.47
2023-05-24T11:13:25.104Z,17.47
2023-05-24T11:14:27.096Z,17.53
2023-05-24T11:15:29.178Z,17.57
2023-05-24T11:16:34.476Z,17.62
2023-05-24T11:17:56.010Z,17.63
2023-05-24T11:18:57.535Z,17.54
2023-05-24T11:19:59.136Z,17.58
2023-05-24T11:21:00.807Z,17.63
2023-05-24T11:22:03.371Z,17.70
2023-05-24T11:23:08.147Z,17.78
2023-05-24T11:24:09.722Z,17.75
2023-05-24T11:25:11.504Z,17.65
2023-05-24T11:26:13.088Z,17.68
2023-05-24T11:27:14.637Z,17.75
2023-05-24T11:28:16.586Z,17.85
2023-05-24T11:29:18.179Z,17.90
2023-05-24T11:30:19.672Z,17.80
2023-05-24T11:31:26.749Z,17.56
2023-05-24T11:32:28.330Z,17.75
2023-05-24T11:33:29.909Z,17.64
2023-05-24T11:34:31.736Z,17.77
2023-05-24T11:35:33.268Z,17.82
2023-05-24T11:36:34.818Z,17.70
2023-05-24T11:37:45.947Z,17.67
2023-05-24T11:38:48.082Z,17.83
2023-05-24T11:39:50.062Z,18.00
2023-05-24T11:40:51.583Z,18.18
2023-05-24T11:41:53.698Z,18.34
2023-05-24T11:42:55.227Z,18.29
2023-05-24T11:43:56.806Z,18.28
2023-05-24T11:44:58.487Z,18.26
2023-05-24T11:46:00.114Z,18.26
2023-05-24T11:47:02.094Z,18.37
2023-05-24T11:48:06.389Z,18.50
2023-05-24T11:49:07.921Z,18.40
2023-05-24T11:50:09.696Z,18.24
2023-05-24T11:51:11.194Z,18.29
2023-05-24T11:52:12.700Z,18.39
2023-05-24T11:53:14.582Z,18.41
2023-05-24T11:54:16.172Z,18.18
2023-05-24T11:55:23.994Z,18.34
2023-05-24T11:56:25.818Z,18.47
2023-05-24T11:57:29.683Z,18.47
2023-05-24T11:58:42.761Z,18.47
2023-05-24T11:59:44.289Z,18.60
2023-05-24T12:00:47.035Z,18.72
2023-05-24T12:01:48.555Z,18.74
2023-05-24T12:02:50.134Z,18.80
2023-05-24T12:03:52.131Z,18.86
2023-05-24T12:04:53.889Z,18.76
2023-05-24T12:05:56.854Z,18.55
2023-05-24T12:06:58.468Z,18.35
2023-05-24T12:08:03.514Z,18.39
2023-05-24T12:09:05.113Z,18.31
2023-05-24T12:10:06.747Z,18.40
2023-05-24T12:11:08.357Z,18.48
2023-05-24T12:12:09.804Z,18.57
2023-05-24T12:13:21.028Z,18.62
2023-05-24T12:14:27.666Z,18.55
2023-05-24T12:15:29.208Z,18.67
2023-05-24T12:16:30.835Z,18.76
2023-05-24T12:17:33.435Z,18.69
2023-05-24T12:18:35.686Z,18.66
2023-05-24T12:19:37.435Z,18.45
2023-05-24T12:20:39.134Z,18.32
2023-05-24T12:21:41.225Z,18.38
2023-05-24T12:22:49.364Z,18.22
2023-05-24T12:23:50.893Z,18.31
2023-05-24T12:24:52.410Z,18.34
2023-05-24T12:25:59.901Z,18.47
2023-05-24T12:27:02.309Z,18.44
2023-05-24T12:28:03.828Z,18.37
2023-05-24T12:29:05.346Z,18.45
2023-05-24T12:30:07.059Z,18.59
2023-05-24T12:31:08.587Z,18.60
2023-05-24T12:32:10.401Z,18.82
2023-05-24T12:33:11.905Z,18.93
2023-05-24T12:34:13.756Z,18.97
2023-05-24T12:35:16.891Z,19.01
2023-05-24T12:36:18.440Z,19.05
2023-05-24T12:37:19.948Z,18.98
2023-05-24T12:38:21.457Z,18.81
2023-05-24T12:39:23.758Z,18.70
2023-05-24T12:40:25.369Z,18.61
2023-05-24T12:41:26.863Z,18.65
2023-05-24T12:42:31.255Z,18.74
2023-05-24T12:43:32.757Z,18.93
2023-05-24T12:44:35.050Z,19.02
2023-05-24T12:45:36.581Z,19.00
2023-05-24T12:46:38.187Z,19.20
2023-05-24T12:47:39.858Z,19.34
2023-05-24T12:48:41.413Z,19.25
2023-05-24T12:49:43.132Z,19.35
2023-05-24T12:50:44.932Z,19.29
2023-05-24T12:51:48.597Z,19.28
2023-05-24T12:52:50.988Z,19.37
2023-05-24T12:53:52.485Z,19.41
2023-05-24T12:54:54.051Z,19.53
2023-05-24T12:55:55.610Z,19.57
2023-05-24T12:56:57.691Z,19.51
2023-05-24T12:57:59.370Z,19.39
2023-05-24T12:59:00.897Z,19.38
2023-05-24T13:00:02.426Z,19.45
2023-05-24T13:01:06.256Z,19.51
2023-05-24T13:02:07.759Z,19.46
2023-05-24T13:03:09.404Z,19.47
2023-05-24T13:04:10.930Z,19.50
2023-05-24T13:05:12.718Z,19.57
2023-05-24T13:06:14.282Z,19.39
2023-05-24T13:07:15.810Z,19.51
2023-05-24T13:08:17.498Z,19.66
2023-05-24T13:09:19.168Z,19.63
2023-05-24T13:10:20.914Z,19.65
2023-05-24T13:11:22.463Z,19.69
2023-05-24T13:12:23.975Z,19.86
2023-05-24T13:13:25.462Z,19.96
2023-05-24T13:14:27.020Z,20.03
2023-05-24T13:15:28.533Z,20.08
2023-05-24T13:16:30.052Z,20.00
2023-05-24T13:17:31.680Z,19.93
2023-05-24T13:18:33.592Z,19.90
2023-05-24T13:19:35.125Z,19.93
2023-05-24T13:20:36.661Z,19.85
2023-05-24T13:21:38.197Z,19.88
2023-05-24T13:22:39.773Z,20.05
2023-05-24T13:23:41.267Z,20.16
2023-05-24T13:24:42.741Z,20.17
2023-05-24T13:25:44.260Z,20.01
2023-05-24T13:26:45.763Z,19.97